Nyk Olympus — 3EOS7 — position and weather

sailwx.info

Track history (hours):
 
Tides and Currents Weather Stations Pressure Air Temp Water Temp Dewpoint Dewpoint Depression Visibility Wind Speed Wind Dir Waves Ship Positions

Nyk Olympus

Last reported at 2017-Jan-21 11:15 UTC. Time now 2017-Jan-23 21:03 UTC.
Position N 36°14' E 014°56'.

Length 335 m; draft 12.4 m.

Type: Other ship. MMSI: 372478000.

Date/timePositionNaut miles runAvg speedWind from/ knotsBaromVisibWave heightAir tempDewpointWater temp
2017-Jan-21 11:15N 36°14' E 014°56'1317.8
2017-Jan-21 10:33N 36°17' E 014°41'1817.7
2017-Jan-21 09:33N 36°22' E 014°20'1818.0
2017-Jan-21 08:34N 36°29' E 013°60'1817.5
2017-Jan-21 07:33N 36°34' E 013°39'45217.3
2017-Jan-20 05:23N 37°12' E 004°16'1619.6
2017-Jan-20 04:34N 37°10' E 003°55'43719.0
2017-Jan-19 05:33N 36°02' W 005°02'2019.7
2017-Jan-19 04:34N 35°59' W 005°26'1918.1
2017-Jan-19 03:32N 35°55' W 005°48'2218.9
2017-Jan-19 02:22N 35°54' W 006°15'  
2017-Jan-16 15:18N 40°19' W 027°57'  
2017-Jan-11 13:33N 36°50' W 075°46'9 9.3
2017-Jan-11 12:33N 36°55' W 075°56'1110.6
2017-Jan-11 11:33N 36°59' W 076°08'  
Track history (hours):
 
Tides and Currents Weather Stations Pressure Air Temp Water Temp Dewpoint Dewpoint Depression Visibility Wind Speed Wind Dir Waves Ship Positions

Nyk Olympus

Last reported at 2017-Jan-21 11:15 UTC. Time now 2017-Jan-23 21:03 UTC.
Position N 36°14' E 014°56'.

Length 335 m; draft 12.4 m.

Type: Other ship. MMSI: 372478000.

Date/timePositionNaut miles runAvg speedWind from/ knotsBaromVisibWave heightAir tempDewpointWater temp
2017-Jan-21 11:15N 36°14' E 014°56'1317.8
2017-Jan-21 10:33N 36°17' E 014°41'1817.7
2017-Jan-21 09:33N 36°22' E 014°20'1818.0
2017-Jan-21 08:34N 36°29' E 013°60'1817.5
2017-Jan-21 07:33N 36°34' E 013°39'45217.3
2017-Jan-20 05:23N 37°12' E 004°16'1619.6
2017-Jan-20 04:34N 37°10' E 003°55'43719.0
2017-Jan-19 05:33N 36°02' W 005°02'2019.7
2017-Jan-19 04:34N 35°59' W 005°26'1918.1
2017-Jan-19 03:32N 35°55' W 005°48'2218.9
2017-Jan-19 02:22N 35°54' W 006°15'  
2017-Jan-16 15:18N 40°19' W 027°57'  
2017-Jan-11 13:33N 36°50' W 075°46'9 9.3
2017-Jan-11 12:33N 36°55' W 075°56'1110.6
2017-Jan-11 11:33N 36°59' W 076°08'  

Dump ship's entire track history